createdAt,value
2018-02-19T00:00:25.259Z,10.00
2018-02-19T00:02:52.618Z,10.23
2018-02-19T00:05:20.026Z,9.67
2018-02-19T00:07:48.144Z,8.90
2018-02-19T00:10:15.515Z,9.73
2018-02-19T00:12:42.908Z,10.00
2018-02-19T00:15:10.265Z,10.00
2018-02-19T00:17:37.617Z,9.10
2018-02-19T00:20:05.006Z,8.93
2018-02-19T00:22:32.356Z,9.33
2018-02-19T00:24:59.707Z,9.90
2018-02-19T00:27:27.141Z,10.17
2018-02-19T00:29:54.498Z,10.40
2018-02-19T00:32:21.850Z,9.97
2018-02-19T00:34:49.230Z,9.30
2018-02-19T00:37:16.625Z,10.07
2018-02-19T00:39:44.873Z,10.50
2018-02-19T00:42:12.226Z,9.03
2018-02-19T00:44:39.712Z,8.60
2018-02-19T00:47:07.084Z,9.00
2018-02-19T00:49:34.432Z,9.37
2018-02-19T00:52:01.864Z,9.33
2018-02-19T00:54:29.227Z,9.47
2018-02-19T00:56:56.575Z,8.10
2018-02-19T00:59:23.983Z,9.30
2018-02-19T01:01:51.331Z,9.37
2018-02-19T01:04:18.682Z,8.83
2018-02-19T01:06:46.058Z,8.90
2018-02-19T01:09:13.458Z,9.43
2018-02-19T01:11:40.829Z,9.70
2018-02-19T01:14:08.185Z,10.00
2018-02-19T01:16:35.562Z,9.70
2018-02-19T01:19:02.961Z,9.10
2018-02-19T01:21:30.330Z,8.67
2018-02-19T01:23:57.682Z,8.70
2018-02-19T01:26:25.078Z,10.00
2018-02-19T01:28:52.445Z,9.30
2018-02-19T01:31:19.842Z,9.33
2018-02-19T01:33:47.213Z,9.37
2018-02-19T01:36:14.560Z,9.50
2018-02-19T01:38:41.948Z,9.07
2018-02-19T01:41:09.306Z,8.73
2018-02-19T01:43:36.663Z,9.20
2018-02-19T01:46:04.065Z,9.00
2018-02-19T01:48:31.432Z,8.83
2018-02-19T01:50:58.788Z,8.67
2018-02-19T01:53:26.174Z,8.57
2018-02-19T01:55:53.520Z,9.03
2018-02-19T01:58:20.873Z,9.67
2018-02-19T02:00:48.261Z,10.17
2018-02-19T02:03:15.618Z,9.53
2018-02-19T02:05:42.964Z,9.73
2018-02-19T02:08:10.345Z,9.50
2018-02-19T02:10:37.693Z,8.97
2018-02-19T02:13:05.052Z,9.90
2018-02-19T02:15:32.421Z,9.50
2018-02-19T02:17:59.827Z,9.30
2018-02-19T02:20:27.248Z,9.60
2018-02-19T02:22:54.597Z,10.47
2018-02-19T02:25:21.977Z,9.67
2018-02-19T02:27:49.375Z,10.00
2018-02-19T02:30:16.739Z,10.20
2018-02-19T02:32:44.147Z,9.67
2018-02-19T02:35:11.553Z,9.13
2018-02-19T02:37:38.901Z,9.53
2018-02-19T02:40:06.254Z,8.97
2018-02-19T02:42:33.639Z,9.10
2018-02-19T02:45:00.989Z,9.73
2018-02-19T02:47:28.351Z,8.93
2018-02-19T02:49:55.806Z,9.20
2018-02-19T02:52:23.153Z,8.90
2018-02-19T02:54:50.510Z,8.80
2018-02-19T02:57:17.893Z,9.40
2018-02-19T02:59:45.251Z,8.73
2018-02-19T03:02:12.626Z,8.90
2018-02-19T03:04:40.039Z,9.53
2018-02-19T03:07:07.393Z,9.10
2018-02-19T03:09:34.743Z,9.07
2018-02-19T03:12:02.117Z,9.10
2018-02-19T03:14:29.502Z,9.07
2018-02-19T03:16:56.894Z,8.70
2018-02-19T03:19:24.244Z,9.00
2018-02-19T03:21:51.618Z,9.00
2018-02-19T03:24:18.984Z,9.70
2018-02-19T03:26:46.376Z,9.60
2018-02-19T03:29:13.748Z,9.20
2018-02-19T03:31:41.103Z,9.90
2018-02-19T03:34:08.499Z,9.90
2018-02-19T03:36:35.853Z,10.20
2018-02-19T03:39:03.215Z,8.40
2018-02-19T03:41:30.604Z,9.77
2018-02-19T03:43:57.957Z,9.60
2018-02-19T03:46:25.374Z,9.67
2018-02-19T03:48:52.733Z,10.20
2018-02-19T03:51:20.085Z,9.30
2018-02-19T03:53:47.483Z,9.43
2018-02-19T03:56:14.829Z,9.20
2018-02-19T03:58:42.182Z,9.70
2018-02-19T04:01:09.573Z,9.90
2018-02-19T04:03:36.962Z,10.43
2018-02-19T04:06:04.334Z,10.90
2018-02-19T04:08:31.734Z,10.60
2018-02-19T04:10:59.228Z,10.40
2018-02-19T04:13:26.593Z,10.60
2018-02-19T04:15:53.984Z,11.27
2018-02-19T04:18:21.393Z,11.00
2018-02-19T04:20:48.751Z,11.03
2018-02-19T04:23:16.321Z,10.90
2018-02-19T04:25:43.689Z,10.90
2018-02-19T04:28:11.066Z,11.20
2018-02-19T04:30:38.466Z,11.03
2018-02-19T04:33:05.834Z,11.80
2018-02-19T04:35:33.197Z,10.70
2018-02-19T04:38:00.629Z,11.03
2018-02-19T04:40:27.978Z,11.10
2018-02-19T04:42:56.946Z,10.67
2018-02-19T04:45:39.234Z,12.73
2018-02-19T04:48:06.603Z,11.90
2018-02-19T04:50:33.988Z,11.30
2018-02-19T04:53:01.381Z,11.60
2018-02-19T04:55:28.755Z,12.40
2018-02-19T04:57:56.113Z,12.33
2018-02-19T05:00:23.516Z,12.17
2018-02-19T05:02:50.873Z,12.00
2018-02-19T05:05:18.390Z,11.90
2018-02-19T05:07:45.791Z,12.17
2018-02-19T05:10:13.153Z,12.10
2018-02-19T05:12:40.526Z,12.83
2018-02-19T05:15:07.938Z,12.97
2018-02-19T05:17:35.316Z,11.67
2018-02-19T05:20:02.680Z,12.87
2018-02-19T05:22:30.082Z,13.70
2018-02-19T05:24:57.446Z,12.50
2018-02-19T05:27:24.801Z,12.60
2018-02-19T05:29:52.193Z,13.30
2018-02-19T05:32:19.546Z,12.93
2018-02-19T05:34:46.904Z,14.60
2018-02-19T05:37:14.298Z,13.97
2018-02-19T05:39:41.671Z,14.43
2018-02-19T05:42:09.029Z,13.27
2018-02-19T05:44:36.424Z,14.10
2018-02-19T05:47:03.784Z,14.30
2018-02-19T05:49:31.150Z,14.13
2018-02-19T05:51:58.568Z,12.87
2018-02-19T05:54:26.081Z,15.33
2018-02-19T05:56:53.437Z,13.90
2018-02-19T05:59:20.797Z,13.60
2018-02-19T06:01:48.193Z,14.37
2018-02-19T06:04:15.551Z,15.07
2018-02-19T06:06:42.929Z,14.77
2018-02-19T06:09:10.315Z,14.90
2018-02-19T06:11:37.717Z,13.87
2018-02-19T06:14:05.069Z,13.93
2018-02-19T06:16:32.425Z,14.30
2018-02-19T06:18:59.821Z,14.03
2018-02-19T06:21:27.183Z,14.63
2018-02-19T06:23:54.579Z,14.93
2018-02-19T06:26:21.988Z,13.83
2018-02-19T06:28:49.360Z,15.30
2018-02-19T06:31:16.714Z,15.30
2018-02-19T06:33:44.097Z,13.60
2018-02-19T06:36:11.451Z,14.80
2018-02-19T06:38:38.845Z,13.83
2018-02-19T06:41:06.220Z,14.37
2018-02-19T06:43:33.666Z,13.90
2018-02-19T06:46:01.053Z,14.17
2018-02-19T06:48:28.412Z,13.73
2018-02-19T06:50:55.794Z,14.13
2018-02-19T06:53:23.210Z,14.40
2018-02-19T06:55:50.573Z,13.73
2018-02-19T06:58:18.026Z,14.37
2018-02-19T07:00:45.405Z,14.07
2018-02-19T07:03:12.772Z,14.03
2018-02-19T07:05:40.157Z,13.60
2018-02-19T07:08:07.562Z,15.47
2018-02-19T07:10:34.921Z,13.90
2018-02-19T07:13:02.298Z,14.60
2018-02-19T07:15:29.690Z,13.63
2018-02-19T07:17:57.045Z,14.70
2018-02-19T07:20:24.399Z,14.20
2018-02-19T07:22:51.948Z,14.73
2018-02-19T07:25:19.317Z,15.00
2018-02-19T07:27:46.675Z,14.83
2018-02-19T07:30:14.081Z,14.80
2018-02-19T07:32:41.441Z,15.33
2018-02-19T07:35:08.826Z,14.37
2018-02-19T07:37:36.221Z,13.77
2018-02-19T07:40:03.635Z,13.93
2018-02-19T07:42:30.992Z,14.63
2018-02-19T07:44:58.345Z,15.00
2018-02-19T07:47:25.730Z,13.27
2018-02-19T07:49:53.134Z,14.33
2018-02-19T07:52:20.499Z,14.70
2018-02-19T07:54:47.855Z,14.20
2018-02-19T07:57:15.253Z,14.70
2018-02-19T07:59:42.649Z,13.00
2018-02-19T08:02:10.015Z,14.60
2018-02-19T08:04:37.378Z,13.70
2018-02-19T08:07:04.878Z,14.00
2018-02-19T08:09:32.231Z,15.53
2018-02-19T08:11:59.590Z,14.10
2018-02-19T08:14:26.994Z,13.93
2018-02-19T08:16:54.354Z,14.83
2018-02-19T08:19:21.711Z,14.67
2018-02-19T08:21:49.114Z,14.57
2018-02-19T08:24:16.477Z,14.80
2018-02-19T08:26:43.880Z,13.67
2018-02-19T08:29:11.242Z,14.67
2018-02-19T08:31:38.607Z,16.10
2018-02-19T08:34:06.009Z,14.60
2018-02-19T08:36:33.368Z,15.27
2018-02-19T08:39:00.748Z,14.90
2018-02-19T08:41:28.191Z,16.33
2018-02-19T08:43:55.542Z,17.60
2018-02-19T08:46:22.901Z,14.13
2018-02-19T08:48:50.301Z,14.00
2018-02-19T08:51:17.665Z,14.40
2018-02-19T08:53:45.026Z,14.33
2018-02-19T08:56:12.420Z,13.50
2018-02-19T08:58:39.773Z,16.73
2018-02-19T09:01:07.133Z,14.47
2018-02-19T09:03:34.509Z,14.57
2018-02-19T09:06:01.873Z,14.57
2018-02-19T09:08:29.279Z,13.90
2018-02-19T09:10:56.758Z,15.03
2018-02-19T09:13:24.119Z,14.00
2018-02-19T09:15:51.530Z,14.70
2018-02-19T09:18:18.886Z,16.17
2018-02-19T09:20:46.238Z,14.80
2018-02-19T09:23:13.642Z,14.50
2018-02-19T09:25:41.147Z,15.00
2018-02-19T09:28:08.505Z,14.10
2018-02-19T09:30:35.900Z,14.77
2018-02-19T09:33:03.261Z,15.63
2018-02-19T09:35:30.617Z,15.20
2018-02-19T09:37:58.003Z,16.03
2018-02-19T09:40:25.360Z,15.27
2018-02-19T09:42:52.762Z,15.70
2018-02-19T09:45:20.122Z,14.50
2018-02-19T09:47:47.524Z,15.07
2018-02-19T09:50:14.938Z,15.43
2018-02-19T09:52:42.297Z,14.77
2018-02-19T09:55:09.650Z,15.60
2018-02-19T09:57:37.042Z,15.37
2018-02-19T10:00:04.406Z,15.77
2018-02-19T10:02:31.765Z,15.30
2018-02-19T10:04:59.140Z,15.50
2018-02-19T10:07:26.507Z,16.40
2018-02-19T10:09:53.906Z,15.70
2018-02-19T10:12:21.274Z,14.80
2018-02-19T10:14:48.632Z,15.83
2018-02-19T10:17:16.043Z,16.23
2018-02-19T10:19:43.402Z,16.10
2018-02-19T10:22:10.761Z,15.77
2018-02-19T10:24:38.155Z,15.73
2018-02-19T10:27:05.513Z,15.60
2018-02-19T10:29:32.877Z,16.23
2018-02-19T10:32:00.283Z,14.30
2018-02-19T10:34:27.964Z,16.27
2018-02-19T10:36:56.107Z,15.23
2018-02-19T10:39:23.511Z,15.50
2018-02-19T10:41:50.873Z,15.63
2018-02-19T10:44:18.231Z,15.40
2018-02-19T10:46:45.669Z,16.30
2018-02-19T10:49:13.024Z,16.80
2018-02-19T10:51:40.381Z,16.80
2018-02-19T10:54:07.773Z,16.30
2018-02-19T10:56:35.137Z,14.67
2018-02-19T10:59:02.502Z,14.50
2018-02-19T11:01:29.902Z,15.53
2018-02-19T11:03:57.266Z,15.27
2018-02-19T11:06:24.617Z,14.47
2018-02-19T11:08:52.021Z,15.23
2018-02-19T11:11:19.378Z,16.83
2018-02-19T11:13:46.738Z,14.97
2018-02-19T11:16:14.153Z,15.20
2018-02-19T11:18:41.505Z,14.90
2018-02-19T11:21:08.866Z,14.93
2018-02-19T11:23:36.266Z,14.80
2018-02-19T11:26:03.621Z,17.17
2018-02-19T11:28:31.003Z,15.33
2018-02-19T11:30:58.413Z,16.30
2018-02-19T11:33:25.781Z,15.27
2018-02-19T11:35:53.176Z,15.90
2018-02-19T11:38:20.568Z,14.73
2018-02-19T11:40:47.923Z,14.70
2018-02-19T11:43:15.283Z,14.30
2018-02-19T11:45:42.683Z,15.57
2018-02-19T11:48:10.046Z,13.77
2018-02-19T11:50:37.439Z,15.30
2018-02-19T11:53:04.846Z,15.20
2018-02-19T11:55:32.213Z,14.37
2018-02-19T11:57:59.568Z,15.70
2018-02-19T12:00:26.970Z,14.07
2018-02-19T12:02:54.326Z,14.53
2018-02-19T12:05:21.685Z,15.43
2018-02-19T12:07:49.086Z,15.00
2018-02-19T12:10:16.437Z,14.20
2018-02-19T12:12:43.789Z,14.50
2018-02-19T12:15:11.350Z,14.23
2018-02-19T12:17:38.714Z,14.90
2018-02-19T12:20:06.087Z,15.43
2018-02-19T12:22:33.493Z,13.73
2018-02-19T12:25:00.850Z,15.27
2018-02-19T12:27:28.201Z,15.63
2018-02-19T12:29:55.594Z,14.97
2018-02-19T12:32:23.018Z,15.50
2018-02-19T12:34:50.477Z,15.03
2018-02-19T12:37:17.838Z,15.40
2018-02-19T12:39:46.394Z,13.97
2018-02-19T12:42:13.777Z,13.50
2018-02-19T12:44:41.171Z,13.87
2018-02-19T12:47:08.557Z,12.60
2018-02-19T12:49:35.908Z,15.00
2018-02-19T12:52:03.268Z,14.40
2018-02-19T12:54:30.649Z,24.40
2018-02-19T12:56:58.057Z,16.80
2018-02-19T12:59:25.408Z,14.30
2018-02-19T13:01:52.765Z,12.30
2018-02-19T13:04:20.169Z,13.70
2018-02-19T13:06:47.537Z,14.37
2018-02-19T13:09:14.892Z,14.00
2018-02-19T13:11:42.285Z,14.10
2018-02-19T13:14:09.650Z,13.50
2018-02-19T13:16:37.005Z,13.83
2018-02-19T13:19:04.389Z,13.67
2018-02-19T13:21:31.751Z,14.70
2018-02-19T13:23:59.117Z,14.27
2018-02-19T13:26:26.519Z,14.10
2018-02-19T13:28:53.870Z,14.30
2018-02-19T13:31:21.289Z,14.87
2018-02-19T13:33:48.651Z,14.50
2018-02-19T13:36:19.625Z,14.10
2018-02-19T13:38:47.038Z,15.37
2018-02-19T13:41:14.397Z,14.20
2018-02-19T13:43:42.512Z,15.10
2018-02-19T13:46:09.889Z,14.80
2018-02-19T13:48:37.314Z,14.97
2018-02-19T13:51:04.672Z,14.80
2018-02-19T13:53:32.028Z,15.40
2018-02-19T13:55:59.482Z,15.77
2018-02-19T13:58:26.848Z,16.20
2018-02-19T14:00:54.202Z,15.23
2018-02-19T14:03:21.617Z,14.23
2018-02-19T14:05:49.013Z,14.67
2018-02-19T14:08:16.371Z,14.80
2018-02-19T14:10:43.774Z,15.43
2018-02-19T14:13:11.157Z,15.77
2018-02-19T14:15:38.557Z,15.67
2018-02-19T14:18:05.955Z,16.77
2018-02-19T14:20:33.341Z,15.37
2018-02-19T14:23:00.699Z,15.93
2018-02-19T14:25:28.105Z,17.30
2018-02-19T14:27:55.498Z,14.00
2018-02-19T14:30:22.861Z,15.57
2018-02-19T14:32:50.263Z,16.77
2018-02-19T14:35:17.642Z,16.00
2018-02-19T14:37:45.018Z,15.97
2018-02-19T14:40:12.435Z,15.30
2018-02-19T14:42:39.838Z,14.60
2018-02-19T14:45:07.193Z,15.23
2018-02-19T14:47:34.551Z,14.00
2018-02-19T14:50:01.930Z,14.30
2018-02-19T14:52:29.321Z,13.90
2018-02-19T14:54:56.678Z,13.60
2018-02-19T14:57:24.037Z,13.97
2018-02-19T14:59:51.487Z,13.60
2018-02-19T15:02:18.821Z,13.90
2018-02-19T15:04:46.173Z,13.97
2018-02-19T15:07:13.570Z,13.70
2018-02-19T15:09:40.930Z,13.70
2018-02-19T15:12:08.285Z,13.90
2018-02-19T15:14:35.666Z,14.00
2018-02-19T15:17:03.028Z,13.57
2018-02-19T15:19:30.413Z,14.10
2018-02-19T15:21:57.820Z,13.67
2018-02-19T15:24:25.208Z,14.10
2018-02-19T15:26:52.580Z,13.63
2018-02-19T15:29:19.979Z,13.43
2018-02-19T15:31:47.330Z,14.17
2018-02-19T15:34:14.701Z,14.77
2018-02-19T15:36:42.962Z,13.80
2018-02-19T15:39:10.328Z,12.93
2018-02-19T15:41:37.722Z,13.63
2018-02-19T15:44:05.109Z,13.00
2018-02-19T15:46:32.465Z,13.10
2018-02-19T15:48:59.826Z,13.00
2018-02-19T15:51:27.217Z,13.83
2018-02-19T15:53:54.580Z,13.67
2018-02-19T15:56:21.942Z,12.73
2018-02-19T15:58:49.325Z,13.77
2018-02-19T16:01:16.709Z,12.80
2018-02-19T16:03:44.077Z,12.93
2018-02-19T16:06:11.481Z,13.77
2018-02-19T16:08:38.838Z,13.60
2018-02-19T16:11:06.231Z,12.87
2018-02-19T16:13:33.604Z,13.00
2018-02-19T16:16:00.962Z,13.70
2018-02-19T16:18:28.365Z,13.43
2018-02-19T16:20:55.729Z,14.00
2018-02-19T16:23:23.085Z,14.00
2018-02-19T16:25:50.474Z,13.80
2018-02-19T16:28:17.837Z,13.70
2018-02-19T16:30:45.250Z,15.27
2018-02-19T16:33:12.600Z,14.07
2018-02-19T16:35:39.952Z,14.23
2018-02-19T16:38:07.357Z,13.63
2018-02-19T16:40:34.710Z,14.40
2018-02-19T16:43:02.066Z,15.70
2018-02-19T16:45:29.445Z,14.03
2018-02-19T16:47:56.834Z,13.67
2018-02-19T16:50:24.230Z,14.40
2018-02-19T16:52:51.594Z,14.93
2018-02-19T16:55:19.001Z,14.87
2018-02-19T16:57:46.358Z,15.10
2018-02-19T17:00:13.728Z,14.73
2018-02-19T17:02:41.129Z,15.13
2018-02-19T17:05:08.519Z,15.00
2018-02-19T17:07:35.878Z,15.93
2018-02-19T17:10:03.279Z,14.93
2018-02-19T17:12:30.648Z,15.50
2018-02-19T17:14:58.013Z,16.60
2018-02-19T17:17:25.421Z,15.93
2018-02-19T17:19:52.773Z,16.23
2018-02-19T17:22:20.130Z,16.00
2018-02-19T17:24:47.552Z,16.47
2018-02-19T17:27:14.914Z,15.40
2018-02-19T17:29:42.307Z,16.67
2018-02-19T17:32:09.705Z,17.13
2018-02-19T17:34:37.061Z,16.77
2018-02-19T17:37:04.414Z,16.77
2018-02-19T17:39:31.826Z,16.57
2018-02-19T17:41:59.186Z,17.20
2018-02-19T17:44:26.570Z,17.73
2018-02-19T17:46:53.965Z,18.20
2018-02-19T17:49:22.193Z,17.80
2018-02-19T17:51:49.551Z,18.00
2018-02-19T17:54:16.941Z,17.97
2018-02-19T17:56:44.338Z,18.83
2018-02-19T17:59:11.710Z,18.50
2018-02-19T18:01:39.062Z,17.23
2018-02-19T18:04:06.520Z,17.57
2018-02-19T18:06:33.878Z,17.90
2018-02-19T18:09:01.241Z,17.20
2018-02-19T18:11:28.617Z,18.00
2018-02-19T18:13:55.974Z,19.07
2018-02-19T18:16:23.367Z,17.40
2018-02-19T18:18:50.746Z,17.83
2018-02-19T18:21:18.098Z,19.80
2018-02-19T18:23:45.533Z,18.37
2018-02-19T18:26:13.057Z,18.37
2018-02-19T18:28:40.457Z,18.50
2018-02-19T18:31:07.866Z,17.97
2018-02-19T18:33:35.224Z,17.77
2018-02-19T18:36:02.582Z,18.70
2018-02-19T18:38:29.990Z,18.30
2018-02-19T18:40:57.348Z,18.60
2018-02-19T18:43:24.739Z,18.00
2018-02-19T18:45:52.148Z,18.00
2018-02-19T18:48:19.507Z,19.00
2018-02-19T18:50:46.870Z,18.93
2018-02-19T18:53:14.281Z,19.80
2018-02-19T18:55:41.674Z,18.87
2018-02-19T18:58:09.062Z,19.10
2018-02-19T19:00:36.413Z,20.00
2018-02-19T19:03:03.778Z,19.80
2018-02-19T19:05:31.192Z,19.90
2018-02-19T19:08:16.394Z,19.80
2018-02-19T19:10:44.546Z,20.10
2018-02-19T19:13:11.909Z,20.53
2018-02-19T19:15:39.273Z,19.40
2018-02-19T19:18:06.661Z,18.07
2018-02-19T19:20:34.017Z,19.33
2018-02-19T19:23:01.386Z,21.07
2018-02-19T19:25:28.790Z,20.00
2018-02-19T19:27:56.150Z,18.63
2018-02-19T19:30:23.511Z,17.57
2018-02-19T19:32:50.931Z,19.47
2018-02-19T19:35:18.296Z,20.43
2018-02-19T19:37:45.697Z,20.33
2018-02-19T19:40:13.064Z,19.73
2018-02-19T19:42:40.564Z,19.00
2018-02-19T19:45:07.967Z,18.80
2018-02-19T19:47:35.335Z,20.13
2018-02-19T19:50:02.703Z,19.10
2018-02-19T19:52:30.094Z,19.00
2018-02-19T19:54:57.470Z,20.10
2018-02-19T19:57:24.874Z,19.40
2018-02-19T19:59:52.228Z,18.70
2018-02-19T20:02:19.586Z,18.67
2018-02-19T20:04:46.986Z,19.93
2018-02-19T20:07:14.346Z,18.33
2018-02-19T20:09:41.739Z,19.20
2018-02-19T20:12:09.118Z,18.67
2018-02-19T20:14:37.113Z,20.07
2018-02-19T20:17:04.509Z,19.10
2018-02-19T20:19:31.889Z,18.83
2018-02-19T20:21:59.255Z,17.43
2018-02-19T20:24:26.758Z,18.70
2018-02-19T20:26:54.159Z,18.50
2018-02-19T20:29:21.609Z,17.47
2018-02-19T20:31:49.015Z,18.57
2018-02-19T20:34:16.401Z,17.57
2018-02-19T20:36:43.753Z,18.63
2018-02-19T20:39:11.110Z,18.77
2018-02-19T20:41:38.549Z,19.10
2018-02-19T20:44:05.921Z,19.90
2018-02-19T20:46:33.282Z,18.63
2018-02-19T20:49:00.675Z,19.00
2018-02-19T20:51:28.030Z,19.67
2018-02-19T20:53:55.386Z,19.40
2018-02-19T20:56:22.837Z,20.27
2018-02-19T20:58:50.189Z,18.00
2018-02-19T21:01:17.542Z,19.57
2018-02-19T21:03:44.929Z,18.70
2018-02-19T21:06:12.363Z,18.00
2018-02-19T21:08:39.730Z,17.17
2018-02-19T21:11:07.118Z,16.93
2018-02-19T21:13:34.478Z,19.00
2018-02-19T21:16:01.865Z,17.73
2018-02-19T21:18:29.230Z,17.97
2018-02-19T21:20:56.626Z,18.00
2018-02-19T21:23:23.988Z,17.53
2018-02-19T21:25:51.366Z,18.47
2018-02-19T21:28:18.762Z,17.70
2018-02-19T21:30:46.130Z,19.90
2018-02-19T21:33:13.483Z,19.10
2018-02-19T21:35:40.901Z,18.70
2018-02-19T21:38:08.269Z,18.53
2018-02-19T21:40:35.633Z,18.53
2018-02-19T21:43:03.027Z,20.20
2018-02-19T21:45:30.385Z,19.70
2018-02-19T21:47:57.741Z,19.93
2018-02-19T21:50:25.153Z,18.70
2018-02-19T21:52:52.514Z,18.57
2018-02-19T21:55:19.886Z,17.70
2018-02-19T21:57:47.286Z,18.20
2018-02-19T22:00:14.646Z,18.50
2018-02-19T22:02:42.007Z,19.23
2018-02-19T22:05:09.398Z,18.60
2018-02-19T22:07:36.753Z,17.63
2018-02-19T22:10:04.109Z,18.70
2018-02-19T22:12:31.525Z,20.13
2018-02-19T22:14:58.886Z,17.80
2018-02-19T22:17:26.242Z,20.13
2018-02-19T22:19:53.628Z,18.40
2018-02-19T22:22:21.030Z,20.80
2018-02-19T22:24:48.479Z,18.63
2018-02-19T22:27:15.839Z,18.73
2018-02-19T22:29:43.239Z,18.53
2018-02-19T22:32:10.598Z,19.87
2018-02-19T22:34:37.993Z,21.30
2018-02-19T22:37:05.385Z,19.37
2018-02-19T22:39:32.746Z,19.40
2018-02-19T22:42:00.485Z,19.27
2018-02-19T22:44:27.888Z,20.73
2018-02-19T22:46:55.252Z,19.60
2018-02-19T22:49:22.661Z,19.27
2018-02-19T22:51:50.027Z,19.30
2018-02-19T22:54:17.396Z,19.13
2018-02-19T22:56:44.786Z,18.93
2018-02-19T22:59:12.182Z,19.50
2018-02-19T23:01:39.597Z,20.17
2018-02-19T23:04:06.959Z,20.30
2018-02-19T23:06:34.317Z,21.10
2018-02-19T23:09:01.697Z,20.93
2018-02-19T23:11:29.114Z,19.43
2018-02-19T23:13:56.481Z,21.13
2018-02-19T23:16:23.842Z,22.03
2018-02-19T23:18:51.229Z,21.00
2018-02-19T23:21:18.638Z,19.63
2018-02-19T23:23:46.090Z,20.07
2018-02-19T23:26:13.441Z,20.77
2018-02-19T23:28:40.817Z,21.50
2018-02-19T23:31:08.172Z,20.90
2018-02-19T23:33:35.582Z,20.70
2018-02-19T23:36:02.944Z,21.07
2018-02-19T23:38:30.366Z,20.80
2018-02-19T23:40:57.726Z,21.45
2018-02-19T23:43:25.079Z,22.80
2018-02-19T23:45:52.462Z,20.90
2018-02-19T23:48:19.873Z,21.57
2018-02-19T23:50:47.288Z,22.13
2018-02-19T23:53:14.646Z,20.10
2018-02-19T23:55:42.046Z,21.10
2018-02-19T23:58:09.796Z,23.67
